Time,TemperatureF,DewpointF,PressureIn,WindDirection,WindDirectionDegrees,WindSpeedMPH,WindSpeedGustMPH,Humidity,HourlyPrecipIn,Conditions,Clouds,dailyrainin,SolarRadiationWatts/m^2,SoftwareType,DateUTC
2013-07-22 00:01:00,71.6,69.2,29.84,NE,44,5.8,5.8,92,0.00,-DZ,,0.00,0.0,WeatherDisplay:10.37,2013-07-22 05:01:00,
2013-07-22 00:06:00,71.4,69.0,29.84,NE,36,7.0,7.0,92,0.00,-DZ,,0.00,0.0,WeatherDisplay:10.37,2013-07-22 05:06:00,
2013-07-22 00:11:00,71.2,68.8,29.84,NNE,22,5.8,5.8,92,0.00,-DZ,,0.00,0.0,WeatherDisplay:10.37,2013-07-22 05:11:00,
2013-07-22 00:16:00,70.9,68.8,29.83,NNE,25,4.6,4.6,93,0.00,-DZ,,0.00,0.0,WeatherDisplay:10.37,2013-07-22 05:16:00,
2013-07-22 00:21:00,70.7,68.6,29.83,NNE,33,3.5,3.5,93,0.00,-DZ,,0.00,0.0,WeatherDisplay:10.37,2013-07-22 05:21:00,
2013-07-22 00:26:00,70.5,68.4,29.83,NE,35,4.6,4.6,93,0.00,-DZ,,0.00,0.0,WeatherDisplay:10.37,2013-07-22 05:26:00,
2013-07-22 00:31:00,70.4,68.3,29.83,NE,36,4.0,4.0,93,0.00,-DZ,,0.00,0.0,WeatherDisplay:10.37,2013-07-22 05:31:00,
2013-07-22 00:36:00,70.3,68.5,29.83,NE,35,3.5,3.5,94,0.00,-DZ,,0.00,0.0,WeatherDisplay:10.37,2013-07-22 05:36:00,
2013-07-22 00:41:00,70.2,68.4,29.84,NE,35,4.6,4.6,94,0.00,-DZ,,0.00,0.0,WeatherDisplay:10.37,2013-07-22 05:41:00,
2013-07-22 00:46:00,70.3,68.5,29.84,NNE,26,3.5,3.5,94,0.00,BKN,,0.00,0.0,WeatherDisplay:10.37,2013-07-22 05:46:00,
2013-07-22 00:51:00,70.3,68.5,29.84,NNE,23,3.5,3.5,94,0.00,BKN,,0.00,0.0,WeatherDisplay:10.37,2013-07-22 05:51:00,
2013-07-22 00:56:00,70.3,68.5,29.84,NNE,24,3.5,3.5,94,0.00,BKN,,0.00,0.0,WeatherDisplay:10.37,2013-07-22 05:56:00,
2013-07-22 01:01:00,70.3,68.5,29.84,NNE,30,3.5,3.5,94,0.00,BKN,,0.00,0.0,WeatherDisplay:10.37,2013-07-22 06:01:00,
2013-07-22 01:06:00,70.3,68.5,29.84,NE,35,5.8,5.8,94,0.00,BKN,,0.00,0.0,WeatherDisplay:10.37,2013-07-22 06:06:00,
2013-07-22 01:11:00,70.3,68.5,29.84,NE,34,7.0,7.0,94,0.00,BKN,,0.00,0.0,WeatherDisplay:10.37,2013-07-22 06:11:00,
2013-07-22 01:16:00,70.2,68.4,29.84,NE,45,4.6,4.6,94,0.00,BKN,,0.00,0.0,WeatherDisplay:10.37,2013-07-22 06:16:00,
2013-07-22 01:21:00,70.2,68.4,29.84,NE,45,6.9,6.9,94,0.00,BKN,,0.00,0.0,WeatherDisplay:10.37,2013-07-22 06:21:00,
2013-07-22 01:26:00,70.2,68.4,29.83,NE,46,4.6,4.6,94,0.00,BKN,,0.00,0.0,WeatherDisplay:10.37,2013-07-22 06:26:00,
2013-07-22 01:32:00,70.1,68.3,29.83,ENE,63,8.0,8.0,94,0.00,OVC,,0.00,0.0,WeatherDisplay:10.37,2013-07-22 06:32:00,
2013-07-22 01:37:00,70.1,68.3,29.83,NE,53,6.9,6.9,94,0.00,OVC,,0.00,0.0,WeatherDisplay:10.37,2013-07-22 06:37:00,
2013-07-22 01:42:00,70.0,68.2,29.83,ENE,76,4.6,4.6,94,0.00,OVC,,0.00,0.0,WeatherDisplay:10.37,2013-07-22 06:42:00,
2013-07-22 01:47:00,70.0,68.2,29.83,ENE,69,6.9,6.9,94,0.00,-DZ,,0.00,0.0,WeatherDisplay:10.37,2013-07-22 06:47:00,
2013-07-22 01:52:00,69.9,68.1,29.83,ENE,78,6.9,6.9,94,0.00,-DZ,,0.00,0.0,WeatherDisplay:10.37,2013-07-22 06:52:00,
2013-07-22 01:57:00,69.9,68.1,29.83,ENE,78,3.5,3.5,94,0.00,-DZ,,0.00,0.0,WeatherDisplay:10.37,2013-07-22 06:57:00,
2013-07-22 02:02:00,69.8,68.0,29.83,East,79,3.5,3.5,94,0.00,-DZ,,0.00,0.0,WeatherDisplay:10.37,2013-07-22 07:02:00,
2013-07-22 02:07:00,69.8,68.0,29.83,East,82,4.6,4.6,94,0.00,-DZ,,0.00,0.0,WeatherDisplay:10.37,2013-07-22 07:07:00,
2013-07-22 02:12:00,69.7,68.2,29.83,ESE,109,3.5,3.5,95,0.00,-DZ,,0.00,0.0,WeatherDisplay:10.37,2013-07-22 07:12:00,
2013-07-22 02:17:00,69.8,68.3,29.83,SE,130,3.5,3.5,95,0.00,-RA,,0.00,0.0,WeatherDisplay:10.37,2013-07-22 07:17:00,
2013-07-22 02:22:00,69.7,68.2,29.83,SE,127,1.1,1.1,95,0.00,-RA,,0.00,0.0,WeatherDisplay:10.37,2013-07-22 07:22:00,
2013-07-22 02:27:00,69.7,68.2,29.83,SE,127,0.0,0.0,95,0.00,-RA,,0.00,0.0,WeatherDisplay:10.37,2013-07-22 07:27:00,
2013-07-22 02:32:00,69.6,68.1,29.83,SE,127,2.3,2.3,95,0.01,-RA,,0.01,0.0,WeatherDisplay:10.37,2013-07-22 07:32:00,
2013-07-22 02:37:00,69.6,68.1,29.83,SE,125,3.5,3.5,95,0.01,-RA,,0.01,0.0,WeatherDisplay:10.37,2013-07-22 07:37:00,
2013-07-22 02:42:00,69.5,68.0,29.82,SE,125,2.0,2.0,95,0.01,-RA,,0.01,0.0,WeatherDisplay:10.37,2013-07-22 07:42:00,
2013-07-22 02:47:00,69.5,68.0,29.82,SE,125,2.3,2.3,95,0.01,-RA,,0.01,0.0,WeatherDisplay:10.37,2013-07-22 07:47:00,
2013-07-22 02:52:00,69.5,68.0,29.82,ESE,109,3.5,3.5,95,0.01,-RA,,0.01,0.0,WeatherDisplay:10.37,2013-07-22 07:52:00,
2013-07-22 02:57:00,69.4,67.9,29.82,ESE,109,4.0,4.0,95,0.01,-RA,,0.01,0.0,WeatherDisplay:10.37,2013-07-22 07:57:00,
2013-07-22 03:02:00,69.4,67.9,29.81,ESE,110,3.5,3.5,95,0.01,BKN,,0.01,0.0,WeatherDisplay:10.37,2013-07-22 08:02:00,
2013-07-22 03:07:00,69.3,67.8,29.81,ESE,110,3.5,3.5,95,0.01,BKN,,0.01,0.0,WeatherDisplay:10.37,2013-07-22 08:07:00,
2013-07-22 03:12:00,69.3,67.8,29.80,ESE,111,3.5,3.5,95,0.01,BKN,,0.01,0.0,WeatherDisplay:10.37,2013-07-22 08:12:00,
2013-07-22 03:17:00,69.2,67.7,29.80,SE,126,4.0,4.0,95,0.01,BKN,,0.01,0.0,WeatherDisplay:10.37,2013-07-22 08:17:00,
2013-07-22 03:22:00,69.1,67.6,29.80,SE,140,4.6,4.6,95,0.01,BKN,,0.01,0.0,WeatherDisplay:10.37,2013-07-22 08:22:00,
2013-07-22 03:27:00,69.1,67.6,29.80,SE,146,5.8,5.8,95,0.01,BKN,,0.01,0.0,WeatherDisplay:10.37,2013-07-22 08:27:00,
2013-07-22 03:32:00,69.1,67.6,29.80,SE,140,6.9,6.9,95,0.00,SCT,,0.01,0.0,WeatherDisplay:10.37,2013-07-22 08:32:00,
2013-07-22 03:37:00,69.2,67.7,29.79,SE,145,3.5,3.5,95,0.00,SCT,,0.01,0.0,WeatherDisplay:10.37,2013-07-22 08:37:00,
2013-07-22 03:42:00,69.2,67.7,29.79,SE,145,3.5,3.5,95,0.00,SCT,,0.01,0.0,WeatherDisplay:10.37,2013-07-22 08:42:00,
2013-07-22 03:47:00,69.2,67.7,29.79,SE,144,2.3,2.3,95,0.00,-DZ,,0.01,0.0,WeatherDisplay:10.37,2013-07-22 08:47:00,
2013-07-22 03:52:00,69.2,67.7,29.79,SE,145,3.5,3.5,95,0.00,-DZ,,0.01,0.0,WeatherDisplay:10.37,2013-07-22 08:52:00,
2013-07-22 03:57:00,69.3,67.8,29.79,SE,145,3.5,3.5,95,0.00,-DZ,,0.01,0.0,WeatherDisplay:10.37,2013-07-22 08:57:00,
2013-07-22 04:02:00,69.3,67.8,29.78,SE,146,3.5,3.5,95,0.00,-DZ,,0.01,0.0,WeatherDisplay:10.37,2013-07-22 09:02:00,
2013-07-22 04:07:00,69.3,67.8,29.78,SE,146,3.5,3.5,95,0.00,-DZ,,0.01,0.0,WeatherDisplay:10.37,2013-07-22 09:07:00,
2013-07-22 04:12:00,69.2,67.7,29.78,SE,145,5.0,5.0,95,0.00,-DZ,,0.01,0.0,WeatherDisplay:10.37,2013-07-22 09:12:00,
2013-07-22 04:17:00,69.0,67.5,29.78,SE,142,3.5,3.5,95,0.00,-DZ,,0.01,0.0,WeatherDisplay:10.37,2013-07-22 09:17:00,
2013-07-22 04:22:00,68.9,67.4,29.78,SE,142,3.0,3.0,95,0.00,-DZ,,0.01,0.0,WeatherDisplay:10.37,2013-07-22 09:22:00,
2013-07-22 04:27:00,68.8,67.3,29.78,SE,142,0.0,0.1,95,0.00,-DZ,,0.01,0.0,WeatherDisplay:10.37,2013-07-22 09:27:00,
2013-07-22 04:32:00,68.8,67.3,29.78,SE,142,2.3,2.3,95,0.00,SCT,,0.01,0.0,WeatherDisplay:10.37,2013-07-22 09:32:00,
2013-07-22 04:37:00,68.8,67.0,29.79,SE,142,3.5,3.5,94,0.00,SCT,,0.01,0.0,WeatherDisplay:10.37,2013-07-22 09:37:00,
2013-07-22 04:42:00,68.8,67.0,29.79,SE,142,1.1,1.1,94,0.00,SCT,,0.01,0.0,WeatherDisplay:10.37,2013-07-22 09:42:00,
2013-07-22 04:47:00,68.7,66.9,29.79,SE,142,2.3,2.3,94,0.00,BKN,,0.01,0.0,WeatherDisplay:10.37,2013-07-22 09:47:00,
2013-07-22 04:52:00,68.8,67.0,29.79,SE,142,0.0,0.0,94,0.00,BKN,,0.01,0.0,WeatherDisplay:10.37,2013-07-22 09:52:00,
2013-07-22 04:57:00,68.8,66.7,29.79,SE,142,1.1,0.0,93,0.00,BKN,,0.01,0.0,WeatherDisplay:10.37,2013-07-22 09:57:00,
2013-07-22 05:02:00,68.8,66.7,29.79,SE,142,0.0,0.0,93,0.00,SCT,,0.01,0.0,WeatherDisplay:10.37,2013-07-22 10:02:00,
2013-07-22 05:07:00,68.5,66.4,29.80,SE,142,0.0,0.0,93,0.00,SCT,,0.01,0.0,WeatherDisplay:10.37,2013-07-22 10:07:00,
2013-07-22 05:12:00,68.4,66.3,29.80,SE,142,0.0,0.0,93,0.00,SCT,,0.01,0.0,WeatherDisplay:10.37,2013-07-22 10:12:00,
2013-07-22 05:17:00,68.3,66.2,29.80,SE,142,3.0,3.0,93,0.00,SCT,,0.01,0.0,WeatherDisplay:10.37,2013-07-22 10:17:00,
2013-07-22 05:22:00,67.9,65.8,29.80,ESE,122,3.5,3.5,93,0.00,SCT,,0.01,0.0,WeatherDisplay:10.37,2013-07-22 10:22:00,
2013-07-22 05:27:00,67.6,65.5,29.80,ESE,122,0.0,0.0,93,0.00,SCT,,0.01,0.0,WeatherDisplay:10.37,2013-07-22 10:27:00,
2013-07-22 05:32:00,67.4,65.3,29.81,ESE,122,1.0,0.0,93,0.00,CLR,,0.01,0.0,WeatherDisplay:10.37,2013-07-22 10:32:00,
2013-07-22 05:37:00,67.1,65.0,29.81,ESE,117,3.5,3.5,93,0.00,CLR,,0.01,0.0,WeatherDisplay:10.37,2013-07-22 10:37:00,
2013-07-22 05:42:00,66.9,65.1,29.81,ESE,117,2.3,2.3,94,0.00,CLR,,0.01,0.0,WeatherDisplay:10.37,2013-07-22 10:42:00,
2013-07-22 05:47:00,66.9,65.1,29.81,ESE,117,1.1,0.0,94,0.00,CLR,,0.01,0.0,WeatherDisplay:10.37,2013-07-22 10:47:00,
2013-07-22 05:52:00,66.8,65.0,29.81,ESE,117,0.0,0.0,94,0.00,CLR,,0.01,0.0,WeatherDisplay:10.37,2013-07-22 10:52:00,
2013-07-22 05:57:00,66.7,64.9,29.81,ESE,117,1.0,1.0,94,0.00,CLR,,0.01,0.0,WeatherDisplay:10.37,2013-07-22 10:57:00,
2013-07-22 06:02:00,66.5,64.7,29.81,ESE,117,1.1,0.0,94,0.00,BKN,,0.01,5.0,WeatherDisplay:10.37,2013-07-22 11:02:00,
2013-07-22 06:07:00,66.4,64.6,29.81,ESE,117,0.0,0.0,94,0.00,BKN,,0.01,5.0,WeatherDisplay:10.37,2013-07-22 11:07:00,
2013-07-22 06:12:00,66.4,64.9,29.81,ESE,117,0.0,0.0,95,0.00,BKN,,0.01,7.0,WeatherDisplay:10.37,2013-07-22 11:12:00,
2013-07-22 06:17:00,66.3,64.8,29.81,ESE,117,0.0,0.0,95,0.00,BKN,,0.01,7.0,WeatherDisplay:10.37,2013-07-22 11:17:00,
2013-07-22 06:22:00,66.0,64.2,29.80,ESE,117,0.0,0.0,94,0.00,BKN,,0.01,7.0,WeatherDisplay:10.37,2013-07-22 11:22:00,
2013-07-22 06:27:00,65.8,64.0,29.81,ESE,117,0.0,0.0,94,0.00,BKN,,0.01,7.0,WeatherDisplay:10.37,2013-07-22 11:27:00,
2013-07-22 06:32:00,66.1,64.6,29.81,ESE,117,0.0,0.0,95,0.00,BKN,,0.01,9.0,WeatherDisplay:10.37,2013-07-22 11:32:00,
2013-07-22 06:37:00,66.3,64.8,29.81,ESE,116,0.0,0.0,95,0.00,BKN,,0.01,9.0,WeatherDisplay:10.37,2013-07-22 11:37:00,
2013-07-22 06:42:00,66.3,64.8,29.81,ESE,117,0.0,0.0,95,0.00,BKN,,0.01,11.0,WeatherDisplay:10.37,2013-07-22 11:42:00,
2013-07-22 06:47:00,66.2,64.7,29.81,ESE,117,0.0,0.0,95,0.00,BKN,,0.01,12.0,WeatherDisplay:10.37,2013-07-22 11:47:00,
2013-07-22 06:53:00,66.0,64.2,29.81,ESE,117,0.0,0.0,94,0.00,BKN,,0.01,16.0,WeatherDisplay:10.37,2013-07-22 11:53:00,
2013-07-22 06:58:00,65.9,64.4,29.82,ESE,117,0.0,0.0,95,0.00,BKN,,0.01,25.0,WeatherDisplay:10.37,2013-07-22 11:58:00,
2013-07-22 07:03:00,66.0,64.5,29.82,ESE,117,0.0,0.0,95,0.00,BKN,,0.01,35.0,WeatherDisplay:10.37,2013-07-22 12:03:00,
2013-07-22 07:08:00,66.4,65.2,29.82,ESE,117,0.0,0.0,96,0.00,BKN,,0.01,42.0,WeatherDisplay:10.37,2013-07-22 12:08:00,
2013-07-22 07:13:00,67.2,66.3,29.82,ESE,117,0.0,0.0,97,0.00,BKN,,0.01,47.0,WeatherDisplay:10.37,2013-07-22 12:13:00,
2013-07-22 07:18:00,68.3,67.4,29.82,ESE,117,0.0,0.0,97,0.00,SCT,,0.01,54.0,WeatherDisplay:10.37,2013-07-22 12:18:00,
2013-07-22 07:23:00,69.4,68.5,29.82,ESE,117,1.1,1.1,97,0.00,SCT,,0.01,54.0,WeatherDisplay:10.37,2013-07-22 12:23:00,
2013-07-22 07:28:00,70.2,69.0,29.82,ESE,117,0.0,0.0,96,0.00,SCT,,0.01,54.0,WeatherDisplay:10.37,2013-07-22 12:28:00,
2013-07-22 07:33:00,71.0,69.5,29.82,ESE,117,2.3,2.3,95,0.00,CLR,,0.01,56.0,WeatherDisplay:10.37,2013-07-22 12:33:00,
2013-07-22 07:38:00,71.7,69.9,29.82,ESE,117,1.1,1.1,94,0.00,CLR,,0.01,60.0,WeatherDisplay:10.37,2013-07-22 12:38:00,
2013-07-22 07:43:00,72.1,69.0,29.82,ESE,117,0.0,0.0,90,0.00,CLR,,0.01,69.0,WeatherDisplay:10.37,2013-07-22 12:43:00,
2013-07-22 07:48:00,72.5,69.1,29.82,ESE,117,2.0,2.0,89,0.00,SCT,,0.01,72.0,WeatherDisplay:10.37,2013-07-22 12:48:00,
2013-07-22 07:53:00,72.4,68.6,29.82,ESE,117,1.1,1.1,88,0.00,SCT,,0.01,81.0,WeatherDisplay:10.37,2013-07-22 12:53:00,
2013-07-22 07:58:00,72.3,68.9,29.82,ESE,117,1.1,0.0,89,0.00,SCT,,0.01,93.0,WeatherDisplay:10.37,2013-07-22 12:58:00,
2013-07-22 08:03:00,72.4,69.0,29.82,ESE,117,4.6,4.6,89,0.00,BKN,,0.01,98.0,WeatherDisplay:10.37,2013-07-22 13:03:00,
2013-07-22 08:08:00,72.2,68.8,29.82,ESE,117,4.0,4.0,89,0.00,BKN,,0.01,102.0,WeatherDisplay:10.37,2013-07-22 13:08:00,
2013-07-22 08:13:00,72.2,68.8,29.82,ESE,122,4.6,4.6,89,0.00,BKN,,0.01,202.0,WeatherDisplay:10.37,2013-07-22 13:13:00,
2013-07-22 08:18:00,72.6,69.5,29.82,SE,139,3.5,3.5,90,0.00,BKN,,0.01,257.0,WeatherDisplay:10.37,2013-07-22 13:18:00,
2013-07-22 08:23:00,73.1,69.3,29.82,SSE,161,4.6,4.6,88,0.00,BKN,,0.01,308.0,WeatherDisplay:10.37,2013-07-22 13:23:00,
2013-07-22 08:28:00,73.4,69.3,29.82,SSE,157,3.5,3.5,87,0.00,BKN,,0.01,343.0,WeatherDisplay:10.37,2013-07-22 13:28:00,
2013-07-22 08:33:00,73.8,69.3,29.82,South,184,4.6,4.6,86,0.00,BKN,,0.01,381.0,WeatherDisplay:10.37,2013-07-22 13:33:00,
2013-07-22 08:38:00,73.7,69.2,29.82,South,177,6.9,6.9,86,0.00,BKN,,0.01,410.0,WeatherDisplay:10.37,2013-07-22 13:38:00,
2013-07-22 08:43:00,73.9,69.1,29.82,South,174,6.9,6.9,85,0.00,BKN,,0.01,445.0,WeatherDisplay:10.37,2013-07-22 13:43:00,
2013-07-22 08:48:00,74.4,69.2,29.82,South,179,6.9,6.9,84,0.00,BKN,,0.01,459.0,WeatherDisplay:10.37,2013-07-22 13:48:00,
2013-07-22 08:53:00,74.8,69.6,29.82,SSE,148,5.8,5.8,84,0.00,BKN,,0.01,445.0,WeatherDisplay:10.37,2013-07-22 13:53:00,
2013-07-22 08:58:00,75.3,69.1,29.82,South,169,4.0,4.2,81,0.00,BKN,,0.01,473.0,WeatherDisplay:10.37,2013-07-22 13:58:00,
2013-07-22 09:03:00,75.5,69.3,29.82,SSE,167,2.3,2.3,81,0.00,BKN,,0.01,485.0,WeatherDisplay:10.37,2013-07-22 14:03:00,
2013-07-22 09:08:00,76.0,69.4,29.82,SSE,156,4.0,4.0,80,0.00,BKN,,0.01,512.0,WeatherDisplay:10.37,2013-07-22 14:08:00,
2013-07-22 09:13:00,76.3,69.3,29.81,SSE,154,3.5,3.5,79,0.00,BKN,,0.01,526.0,WeatherDisplay:10.37,2013-07-22 14:13:00,
2013-07-22 09:18:00,76.8,69.8,29.82,ESE,111,4.0,4.0,79,0.00,BKN,,0.01,543.0,WeatherDisplay:10.37,2013-07-22 14:18:00,
2013-07-22 09:23:00,77.2,69.4,29.82,SE,129,4.0,4.0,77,0.00,BKN,,0.01,559.0,WeatherDisplay:10.37,2013-07-22 14:23:00,
2013-07-22 09:28:00,77.7,69.9,29.82,SE,126,4.6,4.6,77,0.00,BKN,,0.01,578.0,WeatherDisplay:10.37,2013-07-22 14:28:00,
2013-07-22 09:33:00,78.1,69.5,29.82,SE,133,5.0,5.0,75,0.00,BKN,,0.01,596.0,WeatherDisplay:10.37,2013-07-22 14:33:00,
2013-07-22 09:38:00,78.5,69.9,29.81,ESE,112,4.6,4.6,75,0.00,BKN,,0.01,624.0,WeatherDisplay:10.37,2013-07-22 14:38:00,
2013-07-22 09:43:00,78.7,69.3,29.82,ESE,115,6.9,6.9,73,0.00,BKN,,0.01,621.0,WeatherDisplay:10.37,2013-07-22 14:43:00,
2013-07-22 09:48:00,79.0,70.4,29.82,SE,133,5.0,5.0,75,0.00,CLR,,0.01,643.0,WeatherDisplay:10.37,2013-07-22 14:48:00,
2013-07-22 09:53:00,79.2,69.8,29.82,ESE,120,5.8,5.8,73,0.00,CLR,,0.01,675.0,WeatherDisplay:10.37,2013-07-22 14:53:00,
2013-07-22 09:58:00,79.4,69.6,29.82,East,99,7.0,7.0,72,0.00,CLR,,0.01,671.0,WeatherDisplay:10.37,2013-07-22 14:58:00,
2013-07-22 10:03:00,79.4,69.6,29.82,ESE,105,5.8,5.8,72,0.00,CLR,,0.01,682.0,WeatherDisplay:10.37,2013-07-22 15:03:00,
2013-07-22 10:08:00,79.5,69.3,29.82,SSE,166,4.6,4.6,71,0.00,CLR,,0.01,679.0,WeatherDisplay:10.37,2013-07-22 15:08:00,
2013-07-22 10:13:00,79.4,69.6,29.82,ESE,109,5.0,5.0,72,0.00,CLR,,0.01,693.0,WeatherDisplay:10.37,2013-07-22 15:13:00,
2013-07-22 10:18:00,79.6,69.4,29.81,East,98,6.9,6.9,71,0.00,CLR,,0.01,707.0,WeatherDisplay:10.37,2013-07-22 15:18:00,
2013-07-22 10:23:00,79.8,70.0,29.81,ESE,109,5.0,5.0,72,0.00,CLR,,0.01,712.0,WeatherDisplay:10.37,2013-07-22 15:23:00,
2013-07-22 10:28:00,80.5,70.6,29.81,SSE,153,5.8,5.8,72,0.00,CLR,,0.01,729.0,WeatherDisplay:10.37,2013-07-22 15:28:00,
2013-07-22 10:33:00,80.8,70.1,29.81,ESE,115,4.6,4.6,70,0.00,SCT,,0.01,737.0,WeatherDisplay:10.37,2013-07-22 15:33:00,
2013-07-22 10:38:00,81.0,69.9,29.81,SE,126,9.2,9.2,69,0.00,SCT,,0.01,765.0,WeatherDisplay:10.37,2013-07-22 15:38:00,
2013-07-22 10:43:00,81.1,70.0,29.81,South,182,5.8,5.8,69,0.00,SCT,,0.01,828.0,WeatherDisplay:10.37,2013-07-22 15:43:00,
2013-07-22 10:48:00,81.0,70.3,29.81,East,90,5.8,5.8,70,0.00,SCT,,0.01,877.0,WeatherDisplay:10.37,2013-07-22 15:48:00,
2013-07-22 10:53:00,81.5,70.3,29.81,East,81,4.6,4.6,69,0.00,SCT,,0.01,840.0,WeatherDisplay:10.37,2013-07-22 15:53:00,
2013-07-22 10:58:00,81.8,69.8,29.81,ESE,104,5.8,5.8,67,0.00,SCT,,0.01,877.0,WeatherDisplay:10.37,2013-07-22 15:58:00,
2013-07-22 11:03:00,82.0,69.1,29.81,ENE,78,5.8,5.8,65,0.00,SCT,,0.01,918.0,WeatherDisplay:10.37,2013-07-22 16:03:00,
2013-07-22 11:08:00,82.3,69.8,29.81,SSE,160,4.6,4.6,66,0.00,SCT,,0.01,912.0,WeatherDisplay:10.37,2013-07-22 16:08:00,
2013-07-22 11:13:00,82.0,69.1,29.80,SE,133,8.1,8.1,65,0.00,SCT,,0.01,693.0,WeatherDisplay:10.37,2013-07-22 16:13:00,
2013-07-22 11:18:00,81.7,70.5,29.80,ENE,67,4.6,4.6,69,0.00,CLR,,0.01,946.0,WeatherDisplay:10.37,2013-07-22 16:18:00,
2013-07-22 11:23:00,82.5,69.5,29.80,East,81,4.6,4.6,65,0.00,CLR,,0.01,979.0,WeatherDisplay:10.37,2013-07-22 16:23:00,
2013-07-22 11:28:00,82.9,69.9,29.80,SE,134,6.0,6.0,65,0.00,CLR,,0.01,928.0,WeatherDisplay:10.37,2013-07-22 16:28:00,
2013-07-22 11:33:00,82.5,69.5,29.80,East,90,4.6,4.6,65,0.00,CLR,,0.01,926.0,WeatherDisplay:10.37,2013-07-22 16:33:00,
2013-07-22 11:38:00,82.4,69.4,29.81,SE,146,3.5,3.5,65,0.00,CLR,,0.01,204.0,WeatherDisplay:10.37,2013-07-22 16:38:00,
2013-07-22 11:43:00,82.5,70.0,29.81,South,186,3.5,3.5,66,0.00,CLR,,0.01,956.0,WeatherDisplay:10.37,2013-07-22 16:43:00,
2013-07-22 11:48:00,82.6,69.2,29.81,SSE,148,3.5,3.5,64,0.00,CLR,,0.01,970.0,WeatherDisplay:10.37,2013-07-22 16:48:00,
2013-07-22 11:53:00,82.3,69.4,29.81,South,178,8.1,8.1,65,0.00,CLR,,0.01,227.0,WeatherDisplay:10.37,2013-07-22 16:53:00,
2013-07-22 11:59:00,82.2,69.3,29.81,SSE,162,3.5,3.5,65,0.00,CLR,,0.01,937.0,WeatherDisplay:10.37,2013-07-22 16:59:00,
2013-07-22 12:04:00,82.1,68.7,29.81,East,90,3.0,3.0,64,0.00,SCT,,0.01,946.0,WeatherDisplay:10.37,2013-07-22 17:04:00,
2013-07-22 12:09:00,82.7,68.8,29.81,ESE,102,1.1,1.1,63,0.00,SCT,,0.01,656.0,WeatherDisplay:10.37,2013-07-22 17:09:00,
2013-07-22 12:14:00,83.2,69.8,29.81,South,186,10.4,10.4,64,0.00,SCT,,0.01,998.0,WeatherDisplay:10.37,2013-07-22 17:14:00,
2013-07-22 12:19:00,83.3,69.4,29.81,SSE,163,3.5,3.5,63,0.00,SCT,,0.01,984.0,WeatherDisplay:10.37,2013-07-22 17:19:00,
2013-07-22 12:24:00,83.3,68.4,29.81,South,180,8.1,8.1,61,0.00,SCT,,0.01,951.0,WeatherDisplay:10.37,2013-07-22 17:24:00,
2013-07-22 12:29:00,82.7,69.3,29.80,South,183,6.0,6.0,64,0.00,SCT,,0.01,338.0,WeatherDisplay:10.37,2013-07-22 17:29:00,
2013-07-22 12:34:00,83.4,70.4,29.80,ESE,118,6.9,6.9,65,0.00,BKN,,0.01,1025.0,WeatherDisplay:10.37,2013-07-22 17:34:00,
2013-07-22 12:39:00,84.0,70.0,29.80,SSE,151,11.5,11.5,63,0.00,BKN,,0.01,988.0,WeatherDisplay:10.37,2013-07-22 17:39:00,
2013-07-22 12:44:00,83.9,70.4,29.81,SE,142,8.1,8.1,64,0.00,BKN,,0.01,1106.0,WeatherDisplay:10.37,2013-07-22 17:44:00,
2013-07-22 12:49:00,84.1,69.7,29.80,SSW,207,8.1,8.1,62,0.00,SCT,,0.01,1056.0,WeatherDisplay:10.37,2013-07-22 17:49:00,
2013-07-22 12:54:00,83.5,69.1,29.80,SSE,167,4.6,4.6,62,0.00,SCT,,0.01,287.0,WeatherDisplay:10.37,2013-07-22 17:54:00,
2013-07-22 12:59:00,82.4,68.5,29.80,South,177,5.0,5.0,63,0.00,SCT,,0.01,292.0,WeatherDisplay:10.37,2013-07-22 17:59:00,
2013-07-22 13:04:00,82.5,70.0,29.79,ESE,121,5.8,5.8,66,0.00,SCT,,0.01,1027.0,WeatherDisplay:10.37,2013-07-22 18:04:00,
2013-07-22 13:10:00,83.8,67.9,29.80,SSW,199,7.0,7.0,59,0.00,SCT,,0.01,1046.0,WeatherDisplay:10.37,2013-07-22 18:10:00,
2013-07-22 13:15:00,83.6,66.8,29.79,West,265,4.0,4.0,57,0.00,SCT,,0.01,258.0,WeatherDisplay:10.37,2013-07-22 18:15:00,
2013-07-22 13:20:00,83.2,68.3,29.79,West,263,3.5,3.5,61,0.00,SCT,,0.01,290.0,WeatherDisplay:10.37,2013-07-22 18:20:00,
2013-07-22 13:26:00,83.7,69.3,29.79,SW,236,5.0,5.0,62,0.00,SCT,,0.01,1072.0,WeatherDisplay:10.37,2013-07-22 18:26:00,
2013-07-22 13:31:00,84.3,68.4,29.78,SSW,205,6.9,6.9,59,0.00,SCT,,0.01,1034.0,WeatherDisplay:10.37,2013-07-22 18:31:00,
2013-07-22 13:37:00,84.3,67.9,29.78,West,259,5.0,5.0,58,0.00,SCT,,0.01,1013.0,WeatherDisplay:10.37,2013-07-22 18:37:00,
2013-07-22 13:42:00,84.4,67.5,29.78,WNW,287,3.5,3.5,57,0.00,SCT,,0.01,411.0,WeatherDisplay:10.37,2013-07-22 18:42:00,
2013-07-22 13:47:00,84.5,68.6,29.78,SE,140,5.0,5.0,59,0.00,BKN,,0.01,1013.0,WeatherDisplay:10.37,2013-07-22 18:47:00,
2013-07-22 13:52:00,84.8,69.9,29.78,South,171,3.5,3.5,61,0.00,BKN,,0.01,960.0,WeatherDisplay:10.37,2013-07-22 18:52:00,
2013-07-22 13:57:00,85.1,70.1,29.77,ESE,111,3.5,3.5,61,0.00,BKN,,0.01,960.0,WeatherDisplay:10.37,2013-07-22 18:57:00,
2013-07-22 14:03:00,86.0,69.0,29.77,NNE,20,4.0,4.0,57,0.00,BKN,,0.01,969.0,WeatherDisplay:10.37,2013-07-22 19:03:00,
2013-07-22 14:08:00,86.2,69.2,29.77,ENE,61,3.5,3.5,57,0.00,BKN,,0.01,1000.0,WeatherDisplay:10.37,2013-07-22 19:08:00,
2013-07-22 14:14:00,87.1,68.4,29.77,South,171,4.6,4.6,54,0.00,BKN,,0.01,988.0,WeatherDisplay:10.37,2013-07-22 19:14:00,
2013-07-22 14:19:00,86.6,67.4,29.76,SE,138,5.8,5.8,53,0.00,BKN,,0.01,178.0,WeatherDisplay:10.37,2013-07-22 19:19:00,
2013-07-22 14:24:00,85.3,67.3,29.77,South,178,2.3,2.3,55,0.00,BKN,,0.01,167.0,WeatherDisplay:10.37,2013-07-22 19:24:00,
2013-07-22 14:29:00,84.7,67.3,29.77,SE,126,3.5,3.5,56,0.00,BKN,,0.01,933.0,WeatherDisplay:10.37,2013-07-22 19:29:00,
2013-07-22 14:34:00,85.1,69.2,29.77,North,9,3.5,3.5,59,0.00,SCT,,0.01,186.0,WeatherDisplay:10.37,2013-07-22 19:34:00,
2013-07-22 14:40:00,85.2,68.8,29.77,NNE,13,6.9,6.9,58,0.00,SCT,,0.01,192.0,WeatherDisplay:10.37,2013-07-22 19:40:00,
2013-07-22 14:45:00,84.6,68.7,29.77,East,81,5.0,5.0,59,0.00,SCT,,0.01,204.0,WeatherDisplay:10.37,2013-07-22 19:45:00,
2013-07-22 14:50:00,84.3,67.9,29.77,ENE,67,2.3,0.0,58,0.00,SCT,,0.01,153.0,WeatherDisplay:10.37,2013-07-22 19:50:00,
2013-07-22 14:55:00,84.0,67.6,29.76,SE,130,3.5,3.5,58,0.00,SCT,,0.01,172.0,WeatherDisplay:10.37,2013-07-22 19:55:00,
2013-07-22 15:01:00,83.7,68.8,29.76,ESE,115,3.5,3.5,61,0.00,SCT,,0.01,316.0,WeatherDisplay:10.37,2013-07-22 20:01:00,
2013-07-22 15:06:00,84.5,68.1,29.76,East,99,4.6,4.6,58,0.00,SCT,,0.01,900.0,WeatherDisplay:10.37,2013-07-22 20:06:00,
2013-07-22 15:11:00,85.3,67.8,29.76,SSE,155,3.0,3.0,56,0.00,SCT,,0.01,283.0,WeatherDisplay:10.37,2013-07-22 20:11:00,
2013-07-22 15:16:00,85.6,68.6,29.76,SE,138,5.0,5.0,57,0.00,SCT,,0.01,895.0,WeatherDisplay:10.37,2013-07-22 20:16:00,
2013-07-22 15:17:00,85.6,68.6,29.76,SE,138,4.6,4.6,57,0.00,SCT,,0.01,895.0,WeatherDisplay:10.37,2013-07-22 20:17:00,
2013-07-22 15:22:00,85.5,68.0,29.76,SSE,167,5.0,5.0,56,0.00,SCT,,0.01,165.0,WeatherDisplay:10.37,2013-07-22 20:22:00,
2013-07-22 15:27:00,84.9,68.5,29.76,ESE,121,4.0,4.0,58,0.00,SCT,,0.01,225.0,WeatherDisplay:10.37,2013-07-22 20:27:00,
2013-07-22 15:32:00,84.4,68.5,29.76,East,93,3.5,3.5,59,0.00,SCT,,0.01,202.0,WeatherDisplay:10.37,2013-07-22 20:32:00,
2013-07-22 15:37:00,83.9,68.0,29.76,SE,142,4.6,4.6,59,0.00,SCT,,0.01,109.0,WeatherDisplay:10.37,2013-07-22 20:37:00,
2013-07-22 15:42:00,83.5,68.6,29.76,SE,146,2.3,2.3,61,0.00,SCT,,0.01,127.0,WeatherDisplay:10.37,2013-07-22 20:42:00,
2013-07-22 15:43:00,83.4,68.1,29.75,SE,146,2.3,2.3,60,0.00,SCT,,0.01,130.0,WeatherDisplay:10.37,2013-07-22 20:43:00,
2013-07-22 15:48:00,83.1,68.7,29.75,SE,143,2.3,2.3,62,0.00,SCT,,0.01,123.0,WeatherDisplay:10.37,2013-07-22 20:48:00,
2013-07-22 15:53:00,82.9,68.5,29.75,SE,143,3.5,3.5,62,0.00,SCT,,0.01,163.0,WeatherDisplay:10.37,2013-07-22 20:53:00,
2013-07-22 15:58:00,83.0,68.6,29.75,SE,143,0.0,0.0,62,0.00,SCT,,0.01,172.0,WeatherDisplay:10.37,2013-07-22 20:58:00,
2013-07-22 16:03:00,83.1,68.7,29.75,SE,143,3.0,3.0,62,0.00,SCT,,0.01,123.0,WeatherDisplay:10.37,2013-07-22 21:03:00,
2013-07-22 16:08:00,83.0,68.2,29.75,SE,143,0.0,0.0,61,0.00,SCT,,0.01,128.0,WeatherDisplay:10.37,2013-07-22 21:08:00,
2013-07-22 16:13:00,83.0,68.6,29.75,SE,143,2.3,2.3,62,0.00,SCT,,0.01,199.0,WeatherDisplay:10.37,2013-07-22 21:13:00,
2013-07-22 16:18:00,83.2,69.8,29.75,ESE,117,3.5,3.5,64,0.00,SCT,,0.01,615.0,WeatherDisplay:10.37,2013-07-22 21:18:00,
2013-07-22 16:23:00,84.0,69.1,29.75,ENE,73,4.6,4.6,61,0.00,SCT,,0.01,756.0,WeatherDisplay:10.37,2013-07-22 21:23:00,
2013-07-22 16:28:00,85.4,70.9,29.75,ENE,76,2.3,2.3,62,0.00,SCT,,0.01,751.0,WeatherDisplay:10.37,2013-07-22 21:28:00,
2013-07-22 16:33:00,86.7,70.7,29.75,ESE,111,3.5,3.5,59,0.00,SCT,,0.01,721.0,WeatherDisplay:10.37,2013-07-22 21:33:00,
2013-07-22 16:38:00,87.3,71.2,29.75,NNW,341,5.0,5.0,59,0.00,SCT,,0.01,719.0,WeatherDisplay:10.37,2013-07-22 21:38:00,
2013-07-22 16:43:00,87.2,70.1,29.75,NNW,338,1.1,1.1,57,0.00,SCT,,0.01,671.0,WeatherDisplay:10.37,2013-07-22 21:43:00,
2013-07-22 16:48:00,87.5,69.9,29.75,SW,226,5.0,5.0,56,0.00,BKN,,0.01,497.0,WeatherDisplay:10.37,2013-07-22 21:48:00,
2013-07-22 16:53:00,87.5,69.3,29.75,SW,221,5.8,5.8,55,0.00,BKN,,0.01,246.0,WeatherDisplay:10.37,2013-07-22 21:53:00,
2013-07-22 16:58:00,87.1,70.0,29.75,SW,226,8.1,8.1,57,0.00,BKN,,0.01,568.0,WeatherDisplay:10.37,2013-07-22 21:58:00,
2013-07-22 17:03:00,87.1,69.5,29.74,South,190,6.9,6.9,56,0.00,BKN,,0.01,585.0,WeatherDisplay:10.37,2013-07-22 22:03:00,
2013-07-22 17:08:00,87.0,68.9,29.74,SW,235,6.9,6.9,55,0.00,BKN,,0.01,536.0,WeatherDisplay:10.37,2013-07-22 22:08:00,
2013-07-22 17:13:00,86.7,69.6,29.75,SW,231,10.4,10.4,57,0.00,BKN,,0.01,503.0,WeatherDisplay:10.37,2013-07-22 22:13:00,
2013-07-22 17:18:00,86.4,68.8,29.75,SW,225,11.5,11.5,56,0.00,BKN,,0.01,461.0,WeatherDisplay:10.37,2013-07-22 22:18:00,
2013-07-22 17:23:00,86.1,69.1,29.74,SW,231,9.2,9.2,57,0.00,BKN,,0.01,459.0,WeatherDisplay:10.37,2013-07-22 22:23:00,
2013-07-22 17:28:00,85.9,68.9,29.74,South,181,8.1,8.1,57,0.00,BKN,,0.01,446.0,WeatherDisplay:10.37,2013-07-22 22:28:00,
2013-07-22 17:34:00,85.5,69.0,29.74,SSW,207,10.4,10.4,58,0.00,SCT,,0.01,98.0,WeatherDisplay:10.37,2013-07-22 22:34:00,
2013-07-22 17:39:00,84.8,68.9,29.74,SSW,209,8.1,8.1,59,0.00,SCT,,0.01,91.0,WeatherDisplay:10.37,2013-07-22 22:39:00,
2013-07-22 17:44:00,84.2,69.3,29.74,SSW,196,5.8,5.8,61,0.00,SCT,,0.01,81.0,WeatherDisplay:10.37,2013-07-22 22:44:00,
2013-07-22 17:49:00,83.8,69.4,29.74,SSW,202,5.8,5.8,62,0.00,SCT,,0.01,76.0,WeatherDisplay:10.37,2013-07-22 22:49:00,
2013-07-22 17:54:00,83.5,69.1,29.74,SSW,211,6.9,6.9,62,0.00,SCT,,0.01,102.0,WeatherDisplay:10.37,2013-07-22 22:54:00,
2013-07-22 17:59:00,83.4,69.5,29.73,SSW,194,4.6,4.6,63,0.00,SCT,,0.01,113.0,WeatherDisplay:10.37,2013-07-22 22:59:00,
2013-07-22 18:04:00,83.5,69.6,29.73,South,175,8.1,8.1,63,0.00,SCT,,0.01,374.0,WeatherDisplay:10.37,2013-07-22 23:04:00,
2013-07-22 18:09:00,83.7,69.8,29.73,SSW,194,6.9,6.9,63,0.00,SCT,,0.01,123.0,WeatherDisplay:10.37,2013-07-22 23:09:00,
2013-07-22 18:14:00,83.9,70.0,29.73,SSW,211,5.0,5.0,63,0.00,SCT,,0.01,357.0,WeatherDisplay:10.37,2013-07-22 23:14:00,
2013-07-22 18:19:00,84.4,69.5,29.73,SW,224,5.0,5.0,61,0.00,SCT,,0.01,336.0,WeatherDisplay:10.37,2013-07-22 23:19:00,
2013-07-22 18:24:00,84.9,69.5,29.73,SSW,209,8.1,8.1,60,0.00,SCT,,0.01,323.0,WeatherDisplay:10.37,2013-07-22 23:24:00,
2013-07-22 18:29:00,85.2,68.8,29.73,West,269,6.9,6.9,58,0.00,SCT,,0.01,302.0,WeatherDisplay:10.37,2013-07-22 23:29:00,
2013-07-22 18:34:00,85.6,68.6,29.72,SW,236,9.2,9.2,57,0.00,BKN,,0.01,267.0,WeatherDisplay:10.37,2013-07-22 23:34:00,
2013-07-22 18:39:00,85.6,68.6,29.73,SW,227,9.2,9.2,57,0.00,BKN,,0.01,227.0,WeatherDisplay:10.37,2013-07-22 23:39:00,
2013-07-22 18:44:00,85.4,67.9,29.73,West,259,9.2,9.2,56,0.00,BKN,,0.01,202.0,WeatherDisplay:10.37,2013-07-22 23:44:00,
2013-07-22 18:49:00,85.2,67.7,29.73,West,273,10.4,10.4,56,0.00,SCT,,0.01,178.0,WeatherDisplay:10.37,2013-07-22 23:49:00,
2013-07-22 18:54:00,85.1,68.2,29.73,SW,236,6.9,6.9,57,0.00,SCT,,0.01,158.0,WeatherDisplay:10.37,2013-07-22 23:54:00,
2013-07-22 18:59:00,84.8,67.4,29.72,NW,304,6.9,6.9,56,0.00,SCT,,0.01,137.0,WeatherDisplay:10.37,2013-07-22 23:59:00,
2013-07-22 19:04:00,84.8,68.4,29.73,WSW,238,6.0,6.0,58,0.00,BKN,,0.01,118.0,WeatherDisplay:10.37,2013-07-23 00:04:00,
2013-07-22 19:09:00,84.6,68.2,29.73,WSW,238,8.0,8.0,58,0.00,BKN,,0.01,104.0,WeatherDisplay:10.37,2013-07-23 00:09:00,
2013-07-22 19:14:00,84.1,68.2,29.73,SW,236,9.2,9.2,59,0.00,BKN,,0.01,88.0,WeatherDisplay:10.37,2013-07-23 00:14:00,
2013-07-22 19:19:00,83.6,68.2,29.73,SW,234,8.1,8.1,60,0.00,BKN,,0.01,32.0,WeatherDisplay:10.37,2013-07-23 00:19:00,
2013-07-22 19:24:00,83.3,68.0,29.73,SW,234,8.1,8.1,60,0.00,BKN,,0.01,28.0,WeatherDisplay:10.37,2013-07-23 00:24:00,
2013-07-22 19:29:00,83.0,68.2,29.73,WSW,238,6.9,6.9,61,0.00,BKN,,0.01,25.0,WeatherDisplay:10.37,2013-07-23 00:29:00,
2013-07-22 19:34:00,82.9,67.6,29.73,WSW,238,6.9,6.9,60,0.00,BKN,,0.01,23.0,WeatherDisplay:10.37,2013-07-23 00:34:00,
2013-07-22 19:39:00,82.8,68.0,29.74,SW,225,8.1,8.1,61,0.00,BKN,,0.01,19.0,WeatherDisplay:10.37,2013-07-23 00:39:00,
2013-07-22 19:44:00,82.6,67.3,29.74,WSW,241,8.1,8.1,60,0.00,BKN,,0.01,12.0,WeatherDisplay:10.37,2013-07-23 00:44:00,
2013-07-22 19:49:00,82.4,67.6,29.73,WSW,240,5.8,5.8,61,0.00,SCT,,0.01,9.0,WeatherDisplay:10.37,2013-07-23 00:49:00,
2013-07-22 19:54:00,82.3,67.5,29.74,WSW,256,4.6,4.6,61,0.00,SCT,,0.01,7.0,WeatherDisplay:10.37,2013-07-23 00:54:00,
2013-07-22 19:59:00,82.1,67.3,29.74,West,269,5.8,5.8,61,0.00,SCT,,0.01,5.0,WeatherDisplay:10.37,2013-07-23 00:59:00,
2013-07-22 20:04:00,81.9,67.6,29.74,WSW,243,5.8,5.8,62,0.00,CLR,,0.01,0.0,WeatherDisplay:10.37,2013-07-23 01:04:00,
2013-07-22 20:09:00,81.7,67.4,29.74,WSW,252,4.6,4.6,62,0.00,CLR,,0.01,0.0,WeatherDisplay:10.37,2013-07-23 01:09:00,
2013-07-22 20:14:00,81.5,67.7,29.74,WSW,237,4.6,4.6,63,0.00,CLR,,0.01,0.0,WeatherDisplay:10.37,2013-07-23 01:14:00,
2013-07-22 20:19:00,81.3,68.0,29.74,WSW,248,3.5,3.5,64,0.00,CLR,,0.01,0.0,WeatherDisplay:10.37,2013-07-23 01:19:00,
2013-07-22 20:24:00,81.1,67.8,29.74,WSW,250,5.8,5.8,64,0.00,CLR,,0.01,0.0,WeatherDisplay:10.37,2013-07-23 01:24:00,
2013-07-22 20:29:00,80.9,68.0,29.74,WSW,248,5.0,5.0,65,0.00,CLR,,0.01,0.0,WeatherDisplay:10.37,2013-07-23 01:29:00,
2013-07-22 20:34:00,80.9,68.0,29.74,WSW,258,3.5,3.5,65,0.00,CLR,,0.01,0.0,WeatherDisplay:10.37,2013-07-23 01:34:00,
2013-07-22 20:39:00,80.6,68.2,29.74,West,264,2.3,2.3,66,0.00,CLR,,0.01,0.0,WeatherDisplay:10.37,2013-07-23 01:39:00,
2013-07-22 20:44:00,80.4,68.0,29.74,West,264,3.5,3.5,66,0.00,CLR,,0.01,0.0,WeatherDisplay:10.37,2013-07-23 01:44:00,
2013-07-22 20:49:00,80.3,68.3,29.74,West,264,3.5,3.5,67,0.00,CLR,,0.01,0.0,WeatherDisplay:10.37,2013-07-23 01:49:00,
2013-07-22 20:54:00,80.2,68.2,29.74,West,264,2.3,2.3,67,0.00,CLR,,0.01,0.0,WeatherDisplay:10.37,2013-07-23 01:54:00,
2013-07-22 20:59:00,79.9,68.4,29.74,West,264,3.5,3.5,68,0.00,CLR,,0.01,0.0,WeatherDisplay:10.37,2013-07-23 01:59:00,
2013-07-22 21:04:00,79.6,68.5,29.74,West,264,1.1,1.1,69,0.00,CLR,,0.01,0.0,WeatherDisplay:10.37,2013-07-23 02:04:00,
2013-07-22 21:09:00,79.3,68.2,29.75,West,261,3.5,3.5,69,0.00,CLR,,0.01,0.0,WeatherDisplay:10.37,2013-07-23 02:09:00,
2013-07-22 21:14:00,79.1,68.5,29.74,WSW,240,1.1,1.1,70,0.00,CLR,,0.01,0.0,WeatherDisplay:10.37,2013-07-23 02:14:00,
2013-07-22 21:19:00,79.1,68.5,29.74,WSW,240,2.3,2.3,70,0.00,CLR,,0.01,0.0,WeatherDisplay:10.37,2013-07-23 02:19:00,
2013-07-22 21:24:00,79.1,68.5,29.74,WSW,240,3.5,3.5,70,0.00,CLR,,0.01,0.0,WeatherDisplay:10.37,2013-07-23 02:24:00,
2013-07-22 21:29:00,79.2,68.6,29.74,SSW,213,3.5,3.5,70,0.00,CLR,,0.01,0.0,WeatherDisplay:10.37,2013-07-23 02:29:00,
2013-07-22 21:34:00,78.9,68.7,29.74,SSW,213,1.1,0.0,71,0.00,CLR,,0.01,0.0,WeatherDisplay:10.37,2013-07-23 02:34:00,
2013-07-22 21:39:00,78.3,68.5,29.74,SSW,213,1.1,0.0,72,0.00,CLR,,0.01,0.0,WeatherDisplay:10.37,2013-07-23 02:39:00,
2013-07-22 21:44:00,77.6,68.3,29.74,SSW,213,1.1,0.0,73,0.00,CLR,,0.01,0.0,WeatherDisplay:10.37,2013-07-23 02:44:00,
2013-07-22 21:49:00,77.3,68.4,29.74,SSW,213,0.0,0.0,74,0.00,CLR,,0.01,0.0,WeatherDisplay:10.37,2013-07-23 02:49:00,
2013-07-22 21:54:00,77.1,68.6,29.74,SSW,213,2.3,2.3,75,0.00,CLR,,0.01,0.0,WeatherDisplay:10.37,2013-07-23 02:54:00,
2013-07-22 21:59:00,76.9,68.8,29.74,SSW,213,0.0,0.0,76,0.00,CLR,,0.01,0.0,WeatherDisplay:10.37,2013-07-23 02:59:00,
2013-07-22 22:04:00,76.4,68.7,29.74,SSW,213,1.1,0.0,77,0.00,CLR,,0.01,0.0,WeatherDisplay:10.37,2013-07-23 03:04:00,
2013-07-22 22:09:00,75.8,68.4,29.74,SSW,204,2.3,2.3,78,0.00,CLR,,0.01,0.0,WeatherDisplay:10.37,2013-07-23 03:09:00,
2013-07-22 22:14:00,75.3,68.7,29.74,SSW,204,2.3,2.3,80,0.00,CLR,,0.01,0.0,WeatherDisplay:10.37,2013-07-23 03:14:00,
2013-07-22 22:19:00,75.2,68.6,29.75,SSW,204,3.5,3.5,80,0.00,CLR,,0.01,0.0,WeatherDisplay:10.37,2013-07-23 03:19:00,
2013-07-22 22:24:00,75.8,69.2,29.74,SW,223,2.3,2.3,80,0.00,CLR,,0.01,0.0,WeatherDisplay:10.37,2013-07-23 03:24:00,
2013-07-22 22:29:00,75.8,68.8,29.74,SW,223,0.0,0.0,79,0.00,CLR,,0.01,0.0,WeatherDisplay:10.37,2013-07-23 03:29:00,
2013-07-22 22:34:00,75.4,68.8,29.75,SW,223,2.3,2.3,80,0.00,CLR,,0.01,0.0,WeatherDisplay:10.37,2013-07-23 03:34:00,
2013-07-22 22:40:00,75.0,68.8,29.75,SSW,203,1.1,1.4,81,0.00,CLR,,0.01,0.0,WeatherDisplay:10.37,2013-07-23 03:40:00,
2013-07-22 22:45:00,75.2,69.0,29.75,SSW,211,3.5,3.5,81,0.00,CLR,,0.01,0.0,WeatherDisplay:10.37,2013-07-23 03:45:00,
2013-07-22 22:50:00,75.9,69.3,29.75,SW,221,3.5,3.5,80,0.00,CLR,,0.01,0.0,WeatherDisplay:10.37,2013-07-23 03:50:00,
2013-07-22 22:55:00,76.5,69.5,29.76,SSW,198,4.0,4.0,79,0.00,CLR,,0.01,0.0,WeatherDisplay:10.37,2013-07-23 03:55:00,
2013-07-22 23:00:00,76.8,69.8,29.76,SW,223,5.8,5.8,79,0.00,CLR,,0.01,0.0,WeatherDisplay:10.37,2013-07-23 04:00:00,
2013-07-22 23:01:00,76.9,69.5,29.76,SW,221,7.0,7.0,78,0.00,CLR,,0.01,0.0,WeatherDisplay:10.37,2013-07-23 04:01:00,
2013-07-22 23:02:00,76.9,69.5,29.76,SW,232,7.0,7.0,78,0.00,CLR,,0.01,0.0,WeatherDisplay:10.37,2013-07-23 04:02:00,
2013-07-22 23:07:00,77.1,69.7,29.77,SSW,207,4.6,4.6,78,0.00,CLR,,0.01,0.0,WeatherDisplay:10.37,2013-07-23 04:07:00,
2013-07-22 23:12:00,77.1,69.7,29.77,SW,227,6.9,6.9,78,0.00,CLR,,0.01,0.0,WeatherDisplay:10.37,2013-07-23 04:12:00,
2013-07-22 23:17:00,77.0,70.0,29.78,SW,220,6.9,6.9,79,0.00,CLR,,0.01,0.0,WeatherDisplay:10.37,2013-07-23 04:17:00,
2013-07-22 23:22:00,76.8,69.8,29.78,SSW,209,5.0,5.0,79,0.00,CLR,,0.01,0.0,WeatherDisplay:10.37,2013-07-23 04:22:00,
2013-07-22 23:27:00,76.7,70.1,29.78,SW,217,6.9,6.9,80,0.00,CLR,,0.01,0.0,WeatherDisplay:10.37,2013-07-23 04:27:00,
2013-07-22 23:32:00,76.6,70.0,29.78,SW,217,6.9,6.9,80,0.00,CLR,,0.01,0.0,WeatherDisplay:10.37,2013-07-23 04:32:00,
2013-07-22 23:37:00,76.5,69.9,29.78,SW,223,5.8,5.8,80,0.00,CLR,,0.01,0.0,WeatherDisplay:10.37,2013-07-23 04:37:00,
2013-07-22 23:42:00,76.4,70.1,29.78,SW,231,8.1,8.1,81,0.00,CLR,,0.01,0.0,WeatherDisplay:10.37,2013-07-23 04:42:00,
2013-07-22 23:47:00,76.4,70.1,29.77,SW,216,8.1,8.1,81,0.00,CLR,,0.01,0.0,WeatherDisplay:10.37,2013-07-23 04:47:00,
2013-07-22 23:53:00,76.4,70.1,29.77,SSW,209,6.9,6.9,81,0.00,CLR,,0.01,0.0,WeatherDisplay:10.37,2013-07-23 04:53:00,
2013-07-22 23:58:00,76.4,70.1,29.77,SSW,200,5.8,5.8,81,0.00,CLR,,0.01,0.0,WeatherDisplay:10.37,2013-07-23 04:58:00,